Latest Weather Observations for Bairnsdale

IDV60801

Issued at 6:03 am EST Wednesday 20 September 2017 (issued every 30 minutes, with the page automatically refreshed every 10 minutes)

About weather observations | Map of weather stations | Latest weather observations for VIC | Other Formats
Station Details ID: 085279 Name: BAIRNSDALE AIRPORT Lat: -37.88 Lon: 147.57 Height: 49.4 m
Data from the previous 72 hours. | See also: Recent months at Bairnsdale
Date/Time
EST
Temp
°C
App
Temp
°C
Dew
Point
°C
Rel
Hum
%
Delta-T
°C
Wind Press
QNH
hPa
Press
MSL
hPa
Rain since
9am
mm
Dir  Spd
km/h
Gust
km/h
Spd
kts
Gust
kts
20/06:00am 5.6 1.5 2.4 80 1.3 NW 13 17 7 9 1021.2 1021.2 0.0
20/05:30am 5.2 0.7 2.4 82 1.1 NW 15 17 8 9 1021.0 1021.0 0.0
20/05:00am 3.7 -0.5 1.4 85 0.9 NW 13 15 7 8 1020.7 1020.7 0.0
20/04:30am 4.1 -0.5 1.8 85 0.9 NW 15 17 8 9 1020.7 1020.7 0.0
20/04:00am 4.7 0.6 2.1 83 1.0 NW 13 15 7 8 1020.6 1020.6 0.0
20/03:30am 6.1 2.6 3.4 83 1.1 NW 11 15 6 8 1020.6 1020.6 0.0
20/03:00am 6.5 3.1 3.8 83 1.1 NW 11 17 6 9 1020.9 1020.9 0.0
20/02:30am 6.5 3.1 3.8 83 1.1 NW 11 15 6 8 1021.1 1021.1 0.0
20/02:00am 7.3 3.2 4.1 80 1.4 WNW 15 22 8 12 1021.1 1021.1 0.0
20/01:30am 7.8 4.5 4.4 79 1.5 W 11 17 6 9 1021.4 1021.4 0.0
20/01:00am 6.1 2.2 3.4 83 1.1 WNW 13 15 7 8 1021.5 1021.5 0.0
20/12:30am 6.6 3.0 3.2 79 1.4 W 11 13 6 7 1021.6 1021.7 0.0
20/12:00am 6.9 3.1 3.7 80 1.4 W 13 15 7 8 1021.6 1021.7 0.0
 
Date/Time
EST
Temp
°C
App
Temp
°C
Dew
Point
°C
Rel
Hum
%
Delta-T
°C
Wind Press
QNH
hPa
Press
MSL
hPa
Rain since
9am
mm
Dir  Spd
km/h
Gust
km/h
Spd
kts
Gust
kts
19/11:30pm 5.0 1.7 2.5 84 1.0 WNW 9 11 5 6 1021.6 1021.7 0.0
19/11:00pm 5.3 1.3 2.8 84 1.0 WNW 13 15 7 8 1021.5 1021.5 0.0
19/10:30pm 5.7 2.0 2.4 79 1.3 WNW 11 15 6 8 1021.7 1021.8 0.0
19/10:00pm 8.5 3.9 3.6 71 2.1 W 17 24 9 13 1021.7 1021.8 0.0
19/09:30pm 8.6 3.9 3.2 69 2.3 WSW 17 22 9 12 1021.7 1021.8 0.0
19/09:00pm 8.9 3.2 2.9 66 2.5 WSW 22 32 12 17 1021.6 1021.7 0.0
19/08:30pm 9.1 4.0 2.9 65 2.6 WSW 19 26 10 14 1021.4 1021.4 0.0
19/08:00pm 9.2 2.8 3.0 65 2.6 WSW 26 33 14 18 1020.8 1020.8 0.0
19/07:30pm 9.5 3.8 3.0 64 2.8 SW 22 28 12 15 1020.9 1020.9 0.0
19/07:00pm 9.2 4.2 3.4 67 2.5 SW 19 24 10 13 1020.3 1020.3 0.0
19/06:30pm 10.2 5.5 3.3 62 3.0 WSW 17 22 9 12 1020.0 1020.0 0.0
19/06:00pm 10.7 4.3 3.0 59 3.3 WSW 26 33 14 18 1019.7 1019.7 0.0
19/05:30pm 11.7 4.9 3.2 56 3.7 WSW 28 39 15 21 1019.5 1019.5 0.0
19/05:00pm 12.9 5.8 3.3 52 4.3 WSW 30 41 16 22 1019.0 1019.0 0.0
19/04:36pm 12.6 3.6 2.2 49 4.5 WSW 39 57 21 31 1018.6 1018.6 0.0
19/04:30pm 12.9 3.9 2.7 50 4.5 WSW 39 50 21 27 1018.5 1018.5 0.0
19/04:00pm 13.3 5.8 3.7 52 4.3 WSW 32 50 17 27 1018.2 1018.2 0.0
19/03:31pm 13.6 4.5 3.9 52 4.4 WSW 41 63 22 34 1017.9 1017.9 0.0
19/03:30pm 14.1 5.4 4.1 51 4.6 WSW 39 56 21 30 1017.9 1017.9 0.0
19/03:01pm 13.3 5.2 3.1 50 4.5 WSW 35 56 19 30 1017.5 1017.5 0.0
19/03:00pm 14.1 6.1 3.8 50 4.7 WSW 35 48 19 26 1017.5 1017.5 0.0
19/02:37pm 12.9 6.5 5.1 59 3.6 WSW 28 46 15 25 1017.7 1017.7 0.0
19/02:30pm 12.7 6.3 5.4 61 3.4 WSW 28 39 15 21 1017.8 1017.8 0.0
19/02:28pm 12.6 6.4 6.0 64 3.1 WSW 28 46 15 25 1017.8 1017.8 0.0
19/02:00pm 13.9 6.3 3.9 51 4.6 WSW 33 48 18 26 1017.3 1017.3 0.0
19/01:30pm 11.6 2.2 4.6 62 3.2 WSW 43 59 23 32 1017.3 1017.3 0.0
19/01:05pm 14.3 6.8 3.7 49 4.8 WSW 32 54 17 29 1016.9 1016.9 0.0
19/01:00pm 13.9 6.3 3.9 51 4.6 WSW 33 46 18 25 1017.0 1017.0 0.0
19/12:30pm 11.1 3.7 4.1 62 3.1 WSW 32 43 17 23 1017.2 1017.2 0.0
19/12:04pm 13.3 4.8 3.4 51 4.4 W 37 57 20 31 1016.8 1016.8 0.0
19/12:00pm 13.4 5.0 3.5 51 4.4 W 37 52 20 28 1016.8 1016.8 0.0
19/11:35am 13.2 5.3 4.4 55 4.0 W 35 54 19 29 1016.7 1016.7 0.0
19/11:30am 12.6 3.8 3.6 54 4.0 W 39 52 21 28 1016.7 1016.7 0.0
19/11:01am 11.4 2.9 3.4 58 3.5 WSW 37 59 20 32 1016.6 1016.6 0.0
19/11:00am 12.1 3.7 3.6 56 3.8 WSW 37 54 20 29 1016.6 1016.6 0.0
19/10:30am 13.0 5.0 3.7 53 4.2 W 35 59 19 32 1016.4 1016.4 0.0
19/10:26am 12.6 4.2 3.6 54 4.0 W 37 59 20 32 1016.4 1016.4 0.0
19/10:00am 12.5 5.0 4.7 59 3.6 WSW 33 48 18 26 1016.2 1016.2 0.0
19/09:36am 11.9 4.6 4.6 61 3.3 WSW 32 50 17 27 1016.2 1016.2 0.0
19/09:30am 12.1 5.7 5.0 62 3.3 WSW 28 37 15 20 1016.0 1016.0 0.0
19/09:00am 10.4 3.0 5.0 69 2.4 WSW 33 48 18 26 1016.0 1016.0 0.0
19/08:30am 11.8 3.3 3.3 56 3.8 W 37 57 20 31 1015.3 1015.3 0.0
19/08:00am 11.9 4.5 3.9 58 3.6 W 32 50 17 27 1015.0 1015.0 0.0
19/07:43am 11.6 4.9 3.6 58 3.6 W 28 46 15 25 1014.8 1014.8 0.0
19/07:30am 10.9 4.2 3.5 60 3.3 WSW 28 41 15 22 1014.6 1014.6 0.0
19/07:00am 10.7 3.1 3.0 59 3.3 WSW 32 46 17 25 1014.0 1014.0 0.0
19/06:33am 10.9 4.1 3.0 58 3.4 W 28 52 15 28 1013.7 1013.7 0.0
19/06:30am 10.8 5.1 3.1 59 3.4 W 22 37 12 20 1013.7 1013.7 0.0
19/06:00am 10.2 4.9 3.0 61 3.1 W 20 28 11 15 1013.0 1013.0 0.0
19/05:30am 9.8 5.1 3.1 63 2.9 WNW 17 22 9 12 1012.2 1012.2 0.0
19/05:00am 10.3 4.4 4.0 65 2.8 WSW 24 35 13 19 1012.1 1012.1 0.0
19/04:30am 10.9 4.7 4.1 63 3.0 W 26 39 14 21 1011.5 1011.5 0.0
19/04:00am 11.7 6.1 3.2 56 3.7 WNW 22 35 12 19 1011.1 1011.1 0.0
19/03:30am 12.3 7.6 3.3 54 4.0 WNW 17 24 9 13 1011.1 1011.1 0.0
19/03:00am 12.7 8.0 3.4 53 4.2 W 17 22 9 12 1010.9 1010.9 0.0
19/02:30am 13.3 8.0 3.1 50 4.5 W 20 33 11 18 1011.1 1011.1 0.0
19/02:00am 13.4 6.8 4.3 54 4.2 WNW 28 43 15 23 1011.0 1011.0 0.0
19/01:30am 12.4 6.5 7.5 72 2.4 WNW 28 44 15 24 1010.5 1010.5 0.0
19/01:00am 13.3 7.3 7.1 66 3.0 WSW 28 43 15 23 1010.4 1010.4 0.0
19/12:56am 13.4 7.4 7.2 66 3.0 WSW 28 43 15 23 1010.4 1010.4 0.0
19/12:30am 12.3 10.6 6.1 66 2.9 NW 4 7 2 4 1010.1 1010.1 0.0
19/12:00am 13.2 10.3 6.3 63 3.3 W 11 17 6 9 1009.8 1009.8 0.0
 
Date/Time
EST
Temp
°C
App
Temp
°C
Dew
Point
°C
Rel
Hum
%
Delta-T
°C
Wind Press
QNH
hPa
Press
MSL
hPa
Rain since
9am
mm
Dir  Spd
km/h
Gust
km/h
Spd
kts
Gust
kts
18/11:30pm 12.5 9.1 5.9 64 3.1 WSW 13 19 7 10 1009.7 1009.7 0.0
18/11:00pm 12.8 8.2 5.7 62 3.3 SW 19 24 10 13 1009.6 1009.6 0.0
18/10:30pm 14.6 8.6 5.1 53 4.5 SW 26 35 14 19 1010.0 1010.0 0.0
18/10:06pm 15.3 9.6 0.7 37 6.3 W 20 44 11 24 1009.4 1009.4 0.0
18/10:00pm 10.0 6.1 0.9 53 3.8 WNW 11 26 6 14 1009.1 1009.1 0.0
18/09:30pm 14.5 10.6 1.1 40 5.8 NE 11 15 6 8 1008.3 1008.4 0.0
18/09:00pm 14.1 9.8 0.7 40 5.7 NE 13 17 7 9 1008.8 1008.8 0.0
18/08:30pm 14.4 9.6 0.3 38 6.0 NE 15 19 8 10 1009.1 1009.1 0.0
18/08:00pm 16.0 10.4 -0.2 33 6.9 NE 19 22 10 12 1009.4 1009.4 0.0
18/07:30pm 17.7 12.0 -0.5 29 7.8 NNE 19 24 10 13 1009.5 1009.5 0.0
18/07:00pm 16.7 13.3 -0.5 31 7.3 NNE 7 13 4 7 1009.9 1009.9 0.0
18/06:30pm 17.3 13.5 -0.4 30 7.6 NW 9 13 5 7 1010.0 1010.0 0.0
18/06:00pm 19.1 14.5 -0.8 26 8.6 NNE 13 22 7 12 1009.9 1009.9 0.0
18/05:30pm 20.6 15.1 -1.8 22 9.6 N 17 26 9 14 1009.6 1009.6 0.0
18/05:00pm 21.8 16.4 -4.3 17 10.8 NNW 15 22 8 12 1009.3 1009.3 0.0
18/04:30pm 22.2 16.0 -4.8 16 11.1 N 19 26 10 14 1009.2 1009.2 0.0
18/04:00pm 22.4 15.7 -4.6 16 11.2 NNW 22 33 12 18 1009.4 1009.4 0.0
18/03:30pm 22.5 16.8 -0.9 21 10.4 NW 19 30 10 16 1009.5 1009.5 0.0
18/03:00pm 23.5 16.6 -2.9 17 11.4 NW 24 32 13 17 1009.7 1009.7 0.0
18/02:30pm 23.3 14.5 -3.9 16 11.5 NNW 33 50 18 27 1009.8 1009.8 0.0
18/02:24pm 23.5 14.7 -6.5 13 12.1 NNW 32 50 17 27 1009.8 1009.8 0.0
18/02:00pm 23.8 15.9 -4.4 15 11.9 NNW 28 39 15 21 1010.0 1010.0 0.0
18/01:30pm 24.0 15.8 -4.2 15 11.9 NNW 30 48 16 26 1010.5 1010.5 0.0
18/01:00pm 23.8 15.6 -4.4 15 11.9 NNW 30 50 16 27 1011.0 1011.0 0.0
18/12:38pm 23.9 16.0 -5.2 14 12.0 NNW 28 48 15 26 1011.4 1011.4 0.0
18/12:30pm 24.2 16.8 -4.0 15 12.0 N 26 41 14 22 1011.6 1011.6 0.0
18/12:00pm 23.6 16.6 -3.7 16 11.6 NNW 24 35 13 19 1012.3 1012.3 0.0
18/11:30am 21.2 16.6 -0.7 23 9.7 NNE 13 19 7 10 1013.2 1013.2 0.0
18/11:00am 20.4 14.9 -2.0 22 9.6 N 17 24 9 13 1013.7 1013.7 0.0
18/10:30am 18.6 13.4 -0.2 28 8.2 NE 17 24 9 13 1014.6 1014.6 0.0
18/10:00am 17.6 13.0 -1.1 28 7.9 NNE 13 24 7 13 1015.2 1015.2 0.0
18/09:30am 15.3 11.7 0.7 37 6.3 NE 9 15 5 8 1015.9 1015.9 0.0
18/09:00am 14.8 10.9 -1.3 33 6.6 NNE 9 11 5 6 1016.5 1016.5 0.2
18/08:30am 14.5 11.0 -1.6 33 6.5 NNE 7 11 4 6 1016.8 1016.8 0.2
18/08:00am 13.2 8.1 -2.3 34 6.1 NNE 15 20 8 11 1016.8 1016.8 0.2
18/07:30am 11.8 5.8 -3.1 35 5.7 NNE 19 22 10 12 1016.8 1016.8 0.2
18/07:00am 9.4 2.4 -3.2 41 4.7 NNE 24 30 13 16 1016.8 1016.8 0.2
18/06:30am 8.2 2.4 -4.2 41 4.4 NNE 17 24 9 13 1016.9 1016.9 0.2
18/06:00am 6.8 2.2 -4.3 45 3.9 NNE 11 15 6 8 1017.2 1017.2 0.2
18/05:30am 8.3 3.3 -4.2 41 4.5 NNE 13 17 7 9 1017.4 1017.4 0.2
18/05:00am 9.0 4.3 -4.9 37 4.9 N 11 17 6 9 1017.4 1017.4 0.2
18/04:30am 10.6 4.4 -5.0 33 5.6 NNW 19 28 10 15 1017.3 1017.3 0.2
18/04:00am 10.9 4.6 -3.9 35 5.5 N 20 26 11 14 1017.5 1017.5 0.2
18/03:30am 10.4 5.5 -3.3 38 5.1 N 13 17 7 9 1018.0 1018.0 0.2
18/03:00am 9.8 5.4 -2.2 43 4.6 N 11 19 6 10 1018.2 1018.2 0.2
18/02:30am 5.8 1.6 -0.7 63 2.5 NNE 11 13 6 7 1018.6 1018.6 0.2
18/02:00am 7.6 3.1 -0.4 57 3.1 NNE 13 19 7 10 1018.8 1018.8 0.2
18/01:30am 6.8 2.4 0.5 64 2.5 N 13 17 7 9 1019.1 1019.1 0.2
18/01:00am 4.5 0.7 1.9 83 1.0 N 11 13 6 7 1019.5 1019.5 0.2
18/12:30am 5.2 1.9 2.4 82 1.1 N 9 11 5 6 1019.7 1019.7 0.2
18/12:00am 5.5 1.8 4.2 91 0.6 NNE 13 17 7 9 1019.9 1019.9 0.2
 
Date/Time
EST
Temp
°C
App
Temp
°C
Dew
Point
°C
Rel
Hum
%
Delta-T
°C
Wind Press
QNH
hPa
Press
MSL
hPa
Rain since
9am
mm
Dir  Spd
km/h
Gust
km/h
Spd
kts
Gust
kts
17/11:30pm 4.8 2.1 3.5 91 0.5 N 7 9 4 5 1020.3 1020.3 0.2
17/11:00pm 6.3 3.4 4.6 89 0.7 N 9 13 5 7 1020.6 1020.6 0.2
17/10:30pm 6.3 3.4 4.6 89 0.7 NNE 9 13 5 7 1020.8 1020.8 0.2
17/10:00pm 6.6 3.6 4.1 84 1.1 NE 9 11 5 6 1021.1 1021.1 0.2
17/09:30pm 7.3 4.0 4.3 81 1.3 ENE 11 15 6 8 1021.3 1021.3 0.2
17/09:00pm 8.2 4.6 5.0 80 1.4 ENE 13 17 7 9 1021.6 1021.7 0.2
17/08:30pm 7.9 4.2 4.7 80 1.4 E 13 17 7 9 1021.8 1021.9 0.2
17/08:00pm 8.3 4.7 4.9 79 1.5 E 13 13 7 7 1022.0 1022.1 0.2
17/07:30pm 8.3 4.7 4.9 79 1.5 ESE 13 15 7 8 1022.1 1022.2 0.2
17/07:00pm 8.4 4.8 5.0 79 1.5 E 13 15 7 8 1022.0 1022.1 0.2
17/06:30pm 9.1 5.5 4.9 75 1.9 ESE 13 15 7 8 1022.0 1022.1 0.2
17/06:00pm 10.3 6.7 5.1 70 2.4 ESE 13 17 7 9 1022.0 1022.1 0.2
17/05:30pm 11.4 7.5 5.3 66 2.8 ESE 15 20 8 11 1021.8 1021.9 0.2
17/05:00pm 12.6 8.0 5.5 62 3.3 ESE 19 22 10 12 1021.7 1021.8 0.2
17/04:30pm 13.1 8.2 5.0 58 3.8 ESE 20 26 11 14 1021.7 1021.8 0.2
17/04:00pm 14.5 9.9 5.6 55 4.2 ESE 19 22 10 12 1021.8 1021.9 0.2
17/03:30pm 15.3 11.0 5.2 51 4.8 ESE 17 20 9 11 1021.9 1022.0 0.2
17/03:00pm 15.9 12.3 5.2 49 5.1 E 13 20 7 11 1022.2 1022.3 0.2
17/02:30pm 15.5 11.9 4.8 49 5.0 ESE 13 24 7 13 1022.4 1022.5 0.2
17/02:00pm 16.1 13.3 1.8 38 6.3 SE 6 9 3 5 1023.0 1023.1 0.2
17/01:30pm 16.3 13.9 2.3 39 6.3 NNW 4 13 2 7 1023.4 1023.5 0.2
17/01:00pm 15.4 12.1 2.6 42 5.7 WNW 9 13 5 7 1023.9 1024.0 0.2
17/12:30pm 14.7 11.7 2.3 43 5.5 NW 7 11 4 6 1024.6 1024.7 0.2
17/12:00pm 14.2 11.0 2.8 46 5.1 WNW 9 13 5 7 1025.2 1025.3 0.2
17/11:30am 14.0 10.4 2.9 47 5.0 NNW 11 19 6 10 1025.6 1025.7 0.2
17/11:00am 14.2 10.8 3.9 50 4.7 WNW 11 19 6 10 1026.1 1026.2 0.2
17/10:30am 13.6 9.6 3.1 49 4.7 WNW 13 19 7 10 1026.4 1026.5 0.2
17/10:00am 12.2 8.5 2.4 51 4.2 WNW 11 17 6 9 1026.8 1026.9 0.2
17/09:30am 12.3 8.8 3.3 54 4.0 NW 11 17 6 9 1026.9 1027.0 0.0
17/09:00am 10.9 7.4 3.7 61 3.2 NW 11 15 6 8 1027.0 1027.1 0.4
17/08:30am 9.8 5.5 3.5 65 2.7 NW 15 19 8 10 1027.0 1027.1 0.4
17/08:00am 8.2 4.3 3.3 71 2.1 NW 13 17 7 9 1026.9 1027.0 0.4
17/07:30am 7.1 2.8 3.5 78 1.5 NW 15 19 8 10 1026.7 1026.8 0.4
17/07:00am 5.9 1.5 2.9 81 1.2 NW 15 17 8 9 1026.7 1026.8 0.4
17/06:30am 5.6 2.1 3.3 85 1.0 NW 11 13 6 7 1026.2 1026.3 0.4

Other Formats:

Comma delimited format used in spreadsheet applications
http://www.bom.gov.au/fwo/IDV60801/IDV60801.94912.axf

JavaScript Object Notation format (JSON) in row-major order
http://www.bom.gov.au/fwo/IDV60801/IDV60801.94912.json